Time;durP1;ratioP1;P1;durP2;ratioP2;P2;SDS_P1;SDS_P2;PMS_P1;PMS_P2;Temp;Humidity;BMP_temperature;BMP_pressure;BME280_temperature;BME280_humidity;BME280_pressure;Samples;Min_cycle;Max_cycle;Signal;HPM_P1;HPM_P2
2023/12/05 00:00:29;;;;;;;19.70;11.40;;;0.40;99.90;;;;;;5092402;28;20043;-74
2023/12/05 00:02:57;;;;;;;19.65;12.02;;;0.40;99.90;;;;;;5092069;28;20044;-73
2023/12/05 00:05:23;;;;;;;22.38;11.85;;;0.30;99.90;;;;;;5092827;28;20055;-74
2023/12/05 00:07:49;;;;;;;18.77;10.55;;;0.30;99.90;;;;;;5092286;28;20047;-73
2023/12/05 00:10:15;;;;;;;19.30;11.30;;;0.40;99.90;;;;;;5093375;28;20119;-73
2023/12/05 00:12:40;;;;;;;19.77;11.45;;;0.40;99.90;;;;;;5093569;28;20143;-74
2023/12/05 00:15:06;;;;;;;18.75;11.25;;;0.40;99.90;;;;;;5093157;28;20052;-73
2023/12/05 00:17:32;;;;;;;17.98;11.32;;;0.30;99.90;;;;;;5093101;28;20063;-74
2023/12/05 00:19:58;;;;;;;19.33;11.98;;;0.40;99.90;;;;;;5092540;28;20074;-74
2023/12/05 00:22:26;;;;;;;22.63;11.82;;;0.30;99.90;;;;;;5093024;28;20044;-74
2023/12/05 00:24:51;;;;;;;21.23;12.27;;;0.40;99.90;;;;;;5093579;28;20076;-74
2023/12/05 00:27:18;;;;;;;20.52;12.35;;;0.40;99.90;;;;;;5092710;28;20462;-72
2023/12/05 00:29:45;;;;;;;21.85;12.43;;;0.40;99.90;;;;;;5093417;28;20100;-73
2023/12/05 00:32:10;;;;;;;19.02;12.02;;;0.30;99.90;;;;;;5092916;28;20082;-73
2023/12/05 00:34:36;;;;;;;23.95;12.90;;;0.30;99.90;;;;;;5092540;28;20043;-73
2023/12/05 00:37:03;;;;;;;19.83;12.52;;;0.30;99.90;;;;;;5093284;28;20066;-74
2023/12/05 00:39:28;;;;;;;23.85;13.63;;;0.40;99.90;;;;;;5093384;28;20063;-74
2023/12/05 00:41:54;;;;;;;20.58;13.30;;;0.40;99.90;;;;;;5093715;28;20044;-73
2023/12/05 00:44:20;;;;;;;24.38;13.82;;;0.30;99.90;;;;;;5092116;28;20036;-73
2023/12/05 00:46:45;;;;;;;20.85;12.98;;;0.30;99.90;;;;;;5091727;28;20044;-74
2023/12/05 00:49:11;;;;;;;22.25;12.93;;;0.90;99.90;;;;;;5092618;28;20044;-73
2023/12/05 00:51:37;;;;;;;24.25;13.60;;;0.40;99.90;;;;;;5091042;28;20479;-74
2023/12/05 00:54:02;;;;;;;23.17;14.60;;;0.30;99.90;;;;;;5092537;28;20817;-74
2023/12/05 00:56:28;;;;;;;25.85;15.32;;;0.30;99.90;;;;;;5091459;28;20067;-74
2023/12/05 00:58:54;;;;;;;22.70;13.40;;;0.30;99.90;;;;;;5090936;28;20044;-73
2023/12/05 01:01:19;;;;;;;24.02;14.73;;;0.30;99.90;;;;;;5092480;28;20406;-74
2023/12/05 01:03:45;;;;;;;26.45;14.57;;;0.30;99.90;;;;;;5092090;28;20036;-74
2023/12/05 01:06:11;;;;;;;23.92;15.18;;;0.30;99.90;;;;;;5090844;28;20060;-72
2023/12/05 01:08:37;;;;;;;23.27;15.18;;;0.30;99.90;;;;;;5092506;28;20102;-74
2023/12/05 01:11:02;;;;;;;28.33;16.20;;;0.30;99.90;;;;;;5092265;28;20573;-74
2023/12/05 01:13:28;;;;;;;25.45;15.20;;;0.30;99.90;;;;;;5092150;28;20036;-74
2023/12/05 01:15:54;;;;;;;23.25;14.48;;;0.30;99.90;;;;;;5092268;28;20070;-72
2023/12/05 01:18:19;;;;;;;24.33;15.25;;;1.30;99.90;;;;;;5092508;28;20047;-73
2023/12/05 01:20:45;;;;;;;23.90;14.23;;;0.30;99.90;;;;;;5092042;28;20078;-73
2023/12/05 01:23:10;;;;;;;25.33;15.20;;;0.30;99.90;;;;;;5091508;28;20127;-73
2023/12/05 01:25:36;;;;;;;24.05;14.38;;;0.30;99.90;;;;;;5092055;28;20119;-74
2023/12/05 01:28:02;;;;;;;21.00;13.70;;;0.40;99.90;;;;;;5091680;28;20040;-73
2023/12/05 01:30:28;;;;;;;21.55;13.55;;;0.30;99.90;;;;;;5092053;28;20505;-74
2023/12/05 01:32:54;;;;;;;24.70;15.30;;;0.20;99.90;;;;;;5092107;28;20040;-73
2023/12/05 01:35:19;;;;;;;23.13;13.93;;;0.20;99.90;;;;;;5090090;28;20036;-73
2023/12/05 01:37:47;;;;;;;23.58;13.38;;;0.20;99.90;;;;;;5091619;28;20050;-74
2023/12/05 01:40:13;;;;;;;21.75;13.75;;;0.20;99.90;;;;;;5091589;28;20089;-73
2023/12/05 01:42:39;;;;;;;21.63;14.07;;;0.20;99.90;;;;;;5091681;28;20063;-74
2023/12/05 01:45:05;;;;;;;25.10;15.30;;;0.20;99.90;;;;;;5091639;28;20043;-73
2023/12/05 01:47:39;;;;;;;21.70;13.98;;;0.20;99.90;;;;;;5091706;28;20032;-74
2023/12/05 01:50:09;;;;;;;22.25;14.32;;;0.20;99.90;;;;;;5090050;28;20105;-73
2023/12/05 01:52:36;;;;;;;26.25;15.07;;;0.20;99.90;;;;;;5091314;28;20048;-74
2023/12/05 01:55:03;;;;;;;24.15;14.65;;;0.20;99.90;;;;;;5089915;28;20640;-73
2023/12/05 01:57:30;;;;;;;21.90;14.07;;;0.20;99.90;;;;;;5089757;28;20052;-72
2023/12/05 01:59:56;;;;;;;22.10;14.20;;;0.20;99.90;;;;;;5083632;28;20108;-74
2023/12/05 02:02:22;;;;;;;23.30;14.23;;;0.20;99.90;;;;;;5091428;28;20060;-74
2023/12/05 02:04:48;;;;;;;22.25;13.65;;;0.20;99.90;;;;;;5090741;28;20060;-74
2023/12/05 02:07:14;;;;;;;23.40;14.45;;;0.20;99.90;;;;;;5090806;28;20407;-73
2023/12/05 02:09:40;;;;;;;24.67;13.38;;;0.20;99.90;;;;;;5090887;28;20044;-74
2023/12/05 02:12:06;;;;;;;26.55;14.77;;;0.20;99.90;;;;;;5089161;28;20223;-74
2023/12/05 02:14:32;;;;;;;23.52;14.95;;;0.10;99.90;;;;;;5091391;28;20044;-74
2023/12/05 02:17:33;;;;;;;23.58;14.60;;;0.20;99.90;;;;;;5091042;28;20402;-73
2023/12/05 02:20:12;;;;;;;24.90;14.80;;;0.20;99.90;;;;;;5034909;28;20059;-73
2023/12/05 02:22:56;;;;;;;23.80;15.43;;;0.10;99.90;;;;;;5041678;28;20054;-74
2023/12/05 02:25:39;;;;;;;24.88;15.18;;;0.10;99.90;;;;;;5006462;28;20060;-74
2023/12/05 02:28:05;;;;;;;24.73;14.48;;;0.10;99.90;;;;;;5038338;28;20052;-73
2023/12/05 02:30:30;;;;;;;24.27;15.43;;;0.10;99.90;;;;;;5019830;28;20049;-74
2023/12/05 02:32:57;;;;;;;24.10;14.38;;;0.10;99.90;;;;;;5028002;28;20760;-73
2023/12/05 02:35:22;;;;;;;23.40;14.70;;;0.10;99.90;;;;;;5043775;28;20053;-74
2023/12/05 02:38:11;;;;;;;26.10;14.82;;;0.10;99.90;;;;;;5036145;28;20456;-73
2023/12/05 02:40:53;;;;;;;21.75;14.60;;;0.10;99.90;;;;;;5030510;28;20041;-74
2023/12/05 02:43:24;;;;;;;27.48;15.15;;;0.10;99.90;;;;;;5030815;28;20304;-73
2023/12/05 02:45:52;;;;;;;24.02;14.95;;;0.10;99.90;;;;;;5018109;28;20120;-73
2023/12/05 02:48:19;;;;;;;25.90;14.98;;;0.10;99.90;;;;;;5035726;28;20091;-73
2023/12/05 02:50:46;;;;;;;25.98;14.95;;;0.10;99.90;;;;;;5035618;28;20049;-73
2023/12/05 02:53:11;;;;;;;27.45;15.05;;;0.50;99.90;;;;;;5019099;28;20056;-74
2023/12/05 02:55:38;;;;;;;24.58;14.68;;;0.10;99.90;;;;;;5057125;28;20138;-73
2023/12/05 02:58:03;;;;;;;25.38;14.60;;;0.10;99.90;;;;;;5090117;28;20101;-74
2023/12/05 03:00:29;;;;;;;26.98;16.25;;;0.10;99.90;;;;;;5089096;28;20487;-74
2023/12/05 03:02:55;;;;;;;25.65;14.73;;;0.10;99.90;;;;;;5090178;28;20731;-73
2023/12/05 03:05:20;;;;;;;22.77;14.65;;;0.00;99.90;;;;;;5090273;28;20055;-73
2023/12/05 03:07:46;;;;;;;24.48;14.77;;;0.10;99.90;;;;;;5089877;28;20045;-74
2023/12/05 03:10:11;;;;;;;28.15;14.80;;;0.10;99.90;;;;;;5090198;28;20047;-74
2023/12/05 03:12:37;;;;;;;27.33;15.40;;;0.10;99.90;;;;;;5088421;28;20116;-73
2023/12/05 03:15:03;;;;;;;25.92;15.25;;;0.10;99.90;;;;;;5089784;28;20046;-73
2023/12/05 03:17:29;;;;;;;24.52;14.85;;;0.10;99.90;;;;;;5090058;28;20127;-73
2023/12/05 03:19:54;;;;;;;26.65;15.38;;;0.00;99.90;;;;;;5089637;28;20135;-74
2023/12/05 03:22:20;;;;;;;24.67;15.20;;;0.00;99.90;;;;;;5090002;28;20040;-74
2023/12/05 03:24:46;;;;;;;24.52;14.30;;;0.00;99.90;;;;;;5090078;28;20028;-74
2023/12/05 03:27:12;;;;;;;25.02;14.90;;;0.00;99.90;;;;;;5088114;28;20044;-73
2023/12/05 03:29:37;;;;;;;23.98;14.70;;;0.00;99.90;;;;;;5089512;28;20127;-75
2023/12/05 03:32:03;;;;;;;25.10;15.60;;;0.00;99.90;;;;;;5089195;28;20050;-73
2023/12/05 03:34:29;;;;;;;23.45;14.73;;;0.00;99.90;;;;;;5089038;28;20093;-73
2023/12/05 03:36:55;;;;;;;25.45;15.10;;;0.00;99.90;;;;;;5088826;28;20043;-74
2023/12/05 03:39:20;;;;;;;25.10;14.40;;;-0.10;99.90;;;;;;5088429;28;20050;-74
2023/12/05 03:41:47;;;;;;;27.92;16.33;;;-0.10;99.90;;;;;;5089849;28;20483;-74
2023/12/05 03:44:13;;;;;;;26.23;14.75;;;0.00;99.90;;;;;;5088356;28;20106;-75
2023/12/05 03:46:39;;;;;;;23.48;14.85;;;0.00;99.90;;;;;;5089420;28;20047;-74
2023/12/05 03:49:04;;;;;;;27.73;15.52;;;-0.10;99.90;;;;;;5088158;28;20117;-74
2023/12/05 03:51:30;;;;;;;24.40;14.48;;;-0.10;99.90;;;;;;5089150;28;20036;-74
2023/12/05 03:53:56;;;;;;;25.67;15.35;;;0.00;99.90;;;;;;5089632;28;20507;-74
2023/12/05 03:56:22;;;;;;;23.88;14.77;;;-0.10;99.90;;;;;;5089572;28;20052;-73
2023/12/05 03:58:47;;;;;;;23.40;14.68;;;-0.10;99.90;;;;;;5089050;28;20510;-74
2023/12/05 04:01:13;;;;;;;24.75;15.02;;;-0.10;99.90;;;;;;5089273;28;20538;-75
2023/12/05 04:03:39;;;;;;;27.35;15.07;;;-0.10;99.90;;;;;;5088205;28;20036;-76
2023/12/05 04:06:05;;;;;;;24.80;15.38;;;-0.10;99.90;;;;;;5089019;28;20075;-74
2023/12/05 04:08:30;;;;;;;30.25;16.83;;;-0.10;99.90;;;;;;5087973;28;20074;-74
2023/12/05 04:10:56;;;;;;;29.75;17.45;;;-0.10;99.90;;;;;;5088490;28;20479;-75
2023/12/05 04:13:21;;;;;;;27.27;16.27;;;-0.10;99.90;;;;;;5089485;28;20056;-74
2023/12/05 04:15:47;;;;;;;28.95;16.63;;;-0.10;99.90;;;;;;5087422;28;20121;-73
2023/12/05 04:18:13;;;;;;;26.95;16.40;;;0.10;99.90;;;;;;5088843;28;20491;-74
2023/12/05 04:20:38;;;;;;;28.67;16.33;;;-0.10;99.90;;;;;;5089147;28;20134;-73
2023/12/05 04:23:04;;;;;;;28.20;16.60;;;-0.10;99.90;;;;;;5088868;28;20072;-76
2023/12/05 04:25:30;;;;;;;28.80;17.05;;;-0.10;99.90;;;;;;5089214;28;20080;-75
2023/12/05 04:27:55;;;;;;;29.10;17.80;;;-0.10;99.90;;;;;;5089199;28;20513;-76
2023/12/05 04:30:21;;;;;;;26.75;16.65;;;-0.10;99.90;;;;;;5090977;28;20048;-76
2023/12/05 04:32:46;;;;;;;30.13;16.63;;;-0.10;99.90;;;;;;5092651;28;20055;-74
2023/12/05 04:35:15;;;;;;;29.58;17.20;;;-0.10;99.90;;;;;;5092708;28;20036;-74
2023/12/05 04:37:40;;;;;;;25.88;15.98;;;-0.10;99.90;;;;;;5091125;28;20119;-75
2023/12/05 04:40:08;;;;;;;28.77;17.33;;;-0.10;99.90;;;;;;5091579;28;20124;-75
2023/12/05 04:42:33;;;;;;;29.05;17.30;;;-0.20;99.90;;;;;;5092760;28;20076;-75
2023/12/05 04:44:59;;;;;;;26.95;16.70;;;-0.10;99.90;;;;;;5092664;28;20082;-75
2023/12/05 04:47:25;;;;;;;29.92;18.05;;;-0.20;99.90;;;;;;5092308;28;20039;-74
2023/12/05 04:49:50;;;;;;;26.33;16.30;;;-0.10;99.90;;;;;;5090803;28;20050;-76
2023/12/05 04:52:16;;;;;;;29.13;17.42;;;-0.10;99.90;;;;;;5092542;28;20047;-75
2023/12/05 04:54:41;;;;;;;31.33;18.50;;;-0.20;99.90;;;;;;5092446;28;20145;-74
2023/12/05 04:57:07;;;;;;;29.95;17.38;;;-0.10;99.90;;;;;;5092503;28;20050;-76
2023/12/05 04:59:33;;;;;;;30.48;18.30;;;-0.10;99.90;;;;;;5091063;28;20044;-75
2023/12/05 05:01:58;;;;;;;30.92;18.27;;;-0.20;99.90;;;;;;5091944;28;20498;-75
2023/12/05 05:04:24;;;;;;;30.80;18.58;;;-0.10;99.90;;;;;;5091570;28;20486;-75
2023/12/05 05:06:50;;;;;;;31.17;18.65;;;-0.10;99.90;;;;;;5092880;28;20100;-75
2023/12/05 05:09:15;;;;;;;30.65;17.95;;;-0.10;99.90;;;;;;5091459;28;20048;-76
2023/12/05 05:11:41;;;;;;;29.08;18.42;;;-0.20;99.90;;;;;;5093046;28;20059;-76
2023/12/05 05:14:06;;;;;;;30.92;18.02;;;-0.20;99.90;;;;;;5091483;28;20048;-75
2023/12/05 05:16:32;;;;;;;30.75;17.83;;;-0.10;99.90;;;;;;5091962;28;20055;-75
2023/12/05 05:18:59;;;;;;;29.80;17.95;;;-0.20;99.90;;;;;;5090409;28;20676;-75
2023/12/05 05:21:24;;;;;;;32.90;18.92;;;-0.20;99.90;;;;;;5091686;28;20047;-74
2023/12/05 05:23:50;;;;;;;29.70;16.98;;;-0.10;99.90;;;;;;5092237;28;20043;-77
2023/12/05 05:26:16;;;;;;;33.17;18.13;;;-0.10;99.90;;;;;;5091431;28;20415;-75
2023/12/05 05:28:41;;;;;;;31.90;18.35;;;-0.10;99.90;;;;;;5091828;28;20083;-76
2023/12/05 05:31:07;;;;;;;29.80;17.95;;;-0.20;99.90;;;;;;5086775;28;20092;-77
2023/12/05 05:33:32;;;;;;;33.60;17.95;;;-0.20;99.90;;;;;;5091402;28;20040;-75
2023/12/05 05:35:58;;;;;;;27.65;16.85;;;-0.20;99.90;;;;;;5092183;28;20453;-75
2023/12/05 05:38:26;;;;;;;32.53;18.13;;;-0.10;99.90;;;;;;5091389;28;20040;-74
2023/12/05 05:41:03;;;;;;;28.92;17.23;;;-0.20;99.90;;;;;;5087151;28;20051;-75
2023/12/05 05:43:29;;;;;;;30.00;17.73;;;-0.10;99.90;;;;;;5070558;28;20051;-74
2023/12/05 05:45:54;;;;;;;30.63;18.15;;;-0.20;99.90;;;;;;5091235;28;20051;-76
2023/12/05 05:48:20;;;;;;;29.00;17.35;;;-0.10;99.90;;;;;;5091837;28;20040;-75
2023/12/05 05:50:45;;;;;;;32.58;18.05;;;-0.10;99.90;;;;;;5090706;28;20403;-75
2023/12/05 05:53:11;;;;;;;30.38;17.95;;;-0.20;99.90;;;;;;5091787;28;20044;-75
2023/12/05 05:55:36;;;;;;;30.48;17.92;;;-0.20;99.90;;;;;;5091231;28;20063;-74
2023/12/05 05:58:02;;;;;;;34.90;19.17;;;-0.20;99.90;;;;;;5091207;28;20431;-75
2023/12/05 06:00:28;;;;;;;29.60;16.83;;;-0.20;99.90;;;;;;5091127;28;20047;-76
2023/12/05 06:02:53;;;;;;;34.80;18.05;;;-0.20;99.90;;;;;;5090524;28;20056;-75
2023/12/05 06:05:19;;;;;;;30.92;18.17;;;-0.20;99.90;;;;;;5090880;28;20441;-74
2023/12/05 06:07:45;;;;;;;30.55;18.17;;;-0.20;99.90;;;;;;5091037;28;20048;-74
2023/12/05 06:10:10;;;;;;;32.47;17.98;;;-0.20;99.90;;;;;;5091183;28;20076;-75
2023/12/05 06:12:36;;;;;;;34.70;19.40;;;-0.20;99.90;;;;;;5090715;28;20081;-75
2023/12/05 06:15:02;;;;;;;32.58;18.08;;;-0.20;99.90;;;;;;5090923;28;20039;-75
2023/12/05 06:17:27;;;;;;;31.48;17.83;;;-0.20;99.90;;;;;;5091101;28;20044;-76
2023/12/05 06:19:53;;;;;;;29.65;17.42;;;-0.20;99.90;;;;;;5090873;28;20062;-75
2023/12/05 06:22:18;;;;;;;30.85;18.25;;;-0.20;99.90;;;;;;5091117;28;20047;-77
2023/12/05 06:24:44;;;;;;;32.85;18.88;;;-0.20;99.90;;;;;;5090376;28;20051;-74
2023/12/05 06:27:10;;;;;;;34.58;18.83;;;-0.20;99.90;;;;;;5090599;28;20092;-75
2023/12/05 06:29:35;;;;;;;32.00;18.38;;;-0.20;99.90;;;;;;5089555;28;20052;-76
2023/12/05 06:32:01;;;;;;;31.80;17.95;;;-0.20;99.90;;;;;;5090669;28;20177;-75
2023/12/05 06:34:28;;;;;;;34.28;19.30;;;-0.20;99.90;;;;;;5090733;28;20399;-76
2023/12/05 06:36:53;;;;;;;29.95;17.65;;;-0.20;99.90;;;;;;5090460;28;20725;-76
2023/12/05 06:39:19;;;;;;;32.20;18.88;;;-0.20;99.90;;;;;;5090319;28;20075;-76
2023/12/05 06:41:44;;;;;;;33.70;17.58;;;-0.20;99.90;;;;;;5090751;28;20505;-77
2023/12/05 06:44:10;;;;;;;36.08;18.48;;;-0.20;99.90;;;;;;5090521;28;20051;-75
2023/12/05 06:46:36;;;;;;;33.90;18.42;;;-0.20;99.90;;;;;;5090572;28;20047;-76
2023/12/05 06:49:03;;;;;;;34.03;18.30;;;-0.20;99.90;;;;;;5089383;28;20056;-75
2023/12/05 06:51:28;;;;;;;34.75;18.20;;;-0.20;99.90;;;;;;5090300;28;20044;-75
2023/12/05 06:53:54;;;;;;;32.13;18.55;;;-0.20;99.90;;;;;;5090271;28;20379;-77
2023/12/05 06:56:20;;;;;;;33.70;18.70;;;-0.20;99.90;;;;;;5090157;28;20050;-77
2023/12/05 06:58:46;;;;;;;36.05;18.75;;;-0.20;99.90;;;;;;5089495;28;20453;-75
2023/12/05 07:01:12;;;;;;;32.10;17.85;;;-0.30;99.90;;;;;;5090097;28;20044;-76
2023/12/05 07:03:37;;;;;;;36.22;19.42;;;-0.20;99.90;;;;;;5089558;28;20510;-76
2023/12/05 07:06:04;;;;;;;33.17;18.48;;;-0.20;99.90;;;;;;5090165;28;20099;-76
2023/12/05 07:08:30;;;;;;;34.00;19.15;;;-0.20;99.90;;;;;;5088146;28;20058;-76
2023/12/05 07:10:56;;;;;;;32.30;17.90;;;-0.20;99.90;;;;;;5090048;28;20040;-76
2023/12/05 07:13:21;;;;;;;34.75;18.92;;;-0.20;99.90;;;;;;5090694;28;20122;-76
2023/12/05 07:15:47;;;;;;;33.28;18.17;;;-0.20;99.90;;;;;;5089474;28;21346;-76
2023/12/05 07:18:12;;;;;;;36.65;18.70;;;-0.20;99.90;;;;;;5090574;28;20044;-76
2023/12/05 07:20:38;;;;;;;32.03;17.77;;;-0.20;99.90;;;;;;5089083;28;20051;-76
2023/12/05 07:23:04;;;;;;;33.00;18.23;;;-0.20;99.90;;;;;;5090378;28;20086;-76
2023/12/05 07:25:29;;;;;;;34.85;17.67;;;-0.30;99.90;;;;;;5088745;28;20087;-77
2023/12/05 07:27:55;;;;;;;28.75;17.25;;;-0.20;99.90;;;;;;5090491;28;20138;-77
2023/12/05 07:30:20;;;;;;;34.38;18.15;;;-0.20;99.90;;;;;;5090427;28;20447;-75
2023/12/05 07:32:46;;;;;;;33.15;18.40;;;-0.30;99.90;;;;;;5089047;28;20052;-75
2023/12/05 07:35:12;;;;;;;35.03;18.38;;;-0.20;99.90;;;;;;5090124;28;20403;-76
2023/12/05 07:37:37;;;;;;;32.47;17.63;;;-0.30;99.90;;;;;;5090538;28;20043;-76
2023/12/05 07:40:05;;;;;;;33.25;18.67;;;-0.20;99.90;;;;;;5090097;28;20044;-76
2023/12/05 07:42:31;;;;;;;34.63;17.92;;;-0.20;99.90;;;;;;5090554;28;20051;-77
2023/12/05 07:44:57;;;;;;;35.97;18.98;;;-0.30;99.90;;;;;;5090218;28;20119;-76
2023/12/05 07:47:23;;;;;;;36.78;19.67;;;-0.20;99.90;;;;;;5090286;28;20039;-76
2023/12/05 07:49:50;;;;;;;34.28;18.42;;;-0.20;99.90;;;;;;5090206;28;20077;-75
2023/12/05 07:52:15;;;;;;;32.50;17.80;;;-0.20;99.90;;;;;;5090626;28;20074;-79
2023/12/05 07:54:41;;;;;;;32.53;18.00;;;-0.20;99.90;;;;;;5090233;28;20083;-77
2023/12/05 07:57:06;;;;;;;32.95;18.60;;;-0.20;99.90;;;;;;5090539;28;20510;-76
2023/12/05 07:59:32;;;;;;;32.70;17.08;;;-0.20;99.90;;;;;;5090304;28;20514;-78
2023/12/05 08:01:59;;;;;;;32.47;17.33;;;-0.20;99.90;;;;;;5090272;28;20075;-76
2023/12/05 08:04:24;;;;;;;30.85;17.63;;;-0.20;99.90;;;;;;5090549;28;20139;-76
2023/12/05 08:06:50;;;;;;;34.05;18.10;;;-0.10;99.90;;;;;;5093768;28;20493;-77
2023/12/05 08:09:16;;;;;;;32.53;18.63;;;-0.10;99.90;;;;;;5093372;28;20406;-77
2023/12/05 08:11:42;;;;;;;30.92;17.58;;;-0.10;99.90;;;;;;5091378;28;20407;-75
2023/12/05 08:14:07;;;;;;;33.75;17.73;;;-0.10;99.90;;;;;;5091725;28;20498;-78
2023/12/05 08:16:33;;;;;;;29.50;18.15;;;-0.10;99.90;;;;;;5092769;28;20097;-79
2023/12/05 08:19:02;;;;;;;30.70;17.45;;;-0.10;99.90;;;;;;5092787;28;20040;-76
2023/12/05 08:21:27;;;;;;;37.67;18.73;;;-0.10;99.90;;;;;;5093738;28;20039;-76
2023/12/05 08:23:53;;;;;;;31.92;17.73;;;-0.10;99.90;;;;;;5092566;28;20040;-80
2023/12/05 08:26:19;;;;;;;33.80;18.38;;;0.60;99.90;;;;;;5093363;28;20544;-76
2023/12/05 08:28:45;;;;;;;31.90;18.08;;;0.00;99.90;;;;;;5093043;28;20233;-77
2023/12/05 08:31:10;;;;;;;32.28;18.30;;;0.20;99.90;;;;;;5093092;28;20132;-79
2023/12/05 08:33:36;;;;;;;31.42;17.90;;;0.00;99.90;;;;;;5093000;28;20051;-78
2023/12/05 08:36:02;;;;;;;34.40;18.70;;;0.00;99.90;;;;;;5091292;28;20081;-77
2023/12/05 08:38:27;;;;;;;31.80;17.80;;;0.00;99.90;;;;;;5093046;28;20451;-77
2023/12/05 08:40:53;;;;;;;30.25;17.48;;;0.00;99.90;;;;;;5091328;28;20071;-78
2023/12/05 08:43:19;;;;;;;32.15;17.83;;;0.00;99.90;;;;;;5091938;28;20075;-77
2023/12/05 08:45:44;;;;;;;33.25;19.42;;;0.00;99.90;;;;;;5092718;28;20044;-77
2023/12/05 08:48:10;;;;;;;33.78;18.60;;;0.10;99.90;;;;;;5092660;28;20036;-77
2023/12/05 08:50:36;;;;;;;30.77;17.73;;;0.10;99.90;;;;;;5091501;28;20048;-76
2023/12/05 08:53:02;;;;;;;33.00;19.13;;;0.10;99.90;;;;;;5092776;28;20473;-77
2023/12/05 08:55:28;;;;;;;33.13;18.75;;;0.10;99.90;;;;;;5088008;28;20548;-76
2023/12/05 08:57:55;;;;;;;33.53;17.90;;;0.10;99.90;;;;;;5092171;28;20039;-76
2023/12/05 09:00:21;;;;;;;32.67;17.52;;;0.10;99.90;;;;;;5092476;28;20479;-77
2023/12/05 09:02:47;;;;;;;33.58;17.75;;;0.10;99.90;;;;;;5092250;28;20040;-76
2023/12/05 09:05:12;;;;;;;33.30;18.77;;;0.20;99.90;;;;;;5091868;28;20059;-75
2023/12/05 09:07:38;;;;;;;33.03;17.90;;;0.10;99.90;;;;;;5090935;28;20047;-78
2023/12/05 09:10:04;;;;;;;30.50;17.35;;;0.20;99.90;;;;;;5093299;28;20083;-76
2023/12/05 09:12:30;;;;;;;31.48;17.92;;;0.20;99.90;;;;;;5092839;28;20555;-76
2023/12/05 09:14:55;;;;;;;31.55;18.13;;;0.20;99.90;;;;;;5092552;28;20050;-77
2023/12/05 09:17:21;;;;;;;30.00;17.60;;;0.20;99.90;;;;;;5090182;28;20044;-77
2023/12/05 09:19:47;;;;;;;29.50;17.35;;;0.20;99.90;;;;;;5091276;28;20406;-76
2023/12/05 09:22:12;;;;;;;32.35;17.90;;;0.20;99.90;;;;;;5092573;28;20518;-80
2023/12/05 09:24:38;;;;;;;33.30;17.83;;;0.20;99.90;;;;;;5092633;28;20055;-76
2023/12/05 09:27:05;;;;;;;31.65;17.58;;;0.20;99.90;;;;;;5092759;28;20487;-76
2023/12/05 09:29:31;;;;;;;32.78;18.73;;;0.20;99.90;;;;;;5092350;28;20109;-77
2023/12/05 09:31:56;;;;;;;31.15;18.08;;;0.20;99.90;;;;;;5090717;28;20086;-75
2023/12/05 09:34:22;;;;;;;30.42;17.80;;;0.20;99.90;;;;;;5092772;28;20093;-77
2023/12/05 09:36:48;;;;;;;35.40;18.92;;;0.20;99.90;;;;;;5090541;28;20108;-80
2023/12/05 09:39:14;;;;;;;33.22;18.10;;;0.30;99.90;;;;;;5092163;28;20566;-81
2023/12/05 09:41:49;;;;;;;29.65;17.45;;;0.30;99.90;;;;;;5092506;28;20376;-77
2023/12/05 09:44:17;;;;;;;31.70;17.15;;;0.20;99.90;;;;;;5092274;28;20048;-76
2023/12/05 09:46:47;;;;;;;31.85;18.10;;;0.30;99.90;;;;;;5090818;28;20101;-77
2023/12/05 09:49:16;;;;;;;32.45;17.27;;;0.30;99.90;;;;;;5092163;28;20119;-77
2023/12/05 09:51:42;;;;;;;29.60;17.60;;;0.30;99.90;;;;;;5091573;28;20048;-76
2023/12/05 09:54:10;;;;;;;31.98;18.08;;;0.30;99.90;;;;;;5092226;28;20043;-75
2023/12/05 09:56:36;;;;;;;32.33;18.35;;;0.30;99.90;;;;;;5090001;28;20059;-76
2023/12/05 09:59:02;;;;;;;30.67;17.30;;;0.30;99.90;;;;;;5091579;28;20044;-78
2023/12/05 10:01:31;;;;;;;35.17;18.48;;;0.40;99.90;;;;;;5089371;28;20033;-80
2023/12/05 10:04:00;;;;;;;34.53;17.42;;;0.40;99.90;;;;;;5089849;28;20066;-77
2023/12/05 10:06:26;;;;;;;35.67;18.67;;;0.40;99.90;;;;;;5089670;28;20067;-76
2023/12/05 10:08:53;;;;;;;32.22;17.40;;;0.40;99.90;;;;;;5087569;28;20044;-76
2023/12/05 10:11:23;;;;;;;31.02;18.40;;;0.40;99.90;;;;;;5090834;28;20052;-76
2023/12/05 10:13:49;;;;;;;32.78;18.52;;;0.40;99.90;;;;;;5089328;28;20139;-77
2023/12/05 10:16:16;;;;;;;33.35;18.25;;;0.40;99.90;;;;;;5090532;28;20122;-77
2023/12/05 10:18:44;;;;;;;34.10;18.98;;;0.50;99.90;;;;;;5091218;28;20044;-77
2023/12/05 10:21:10;;;;;;;28.38;17.27;;;0.50;99.90;;;;;;5084434;28;20600;-80
2023/12/05 10:23:36;;;;;;;37.35;19.52;;;0.50;99.90;;;;;;5085252;28;20059;-74
2023/12/05 10:26:02;;;;;;;32.22;18.27;;;0.50;99.90;;;;;;5089357;28;20048;-78
2023/12/05 10:28:28;;;;;;;32.97;18.13;;;0.60;99.90;;;;;;5088643;28;20557;-74
2023/12/05 10:30:54;;;;;;;34.58;18.73;;;0.60;99.90;;;;;;5091854;28;20118;-75
2023/12/05 10:33:21;;;;;;;33.40;18.35;;;0.60;99.90;;;;;;5090379;28;20040;-77
2023/12/05 10:35:47;;;;;;;31.95;17.38;;;0.60;99.90;;;;;;5090379;28;20140;-78
2023/12/05 10:38:17;;;;;;;34.55;18.60;;;0.60;99.90;;;;;;5090997;28;20052;-77
2023/12/05 10:40:54;;;;;;;31.88;18.05;;;0.60;99.90;;;;;;5091207;28;20082;-75
2023/12/05 10:43:20;;;;;;;32.95;19.15;;;0.60;99.90;;;;;;5082269;28;20040;-74
2023/12/05 10:45:47;;;;;;;33.95;18.65;;;0.60;99.90;;;;;;5090582;28;20123;-76
2023/12/05 10:48:14;;;;;;;34.55;17.83;;;0.60;99.90;;;;;;5090218;28;20133;-77
2023/12/05 10:50:40;;;;;;;36.72;19.17;;;0.60;99.90;;;;;;5089984;28;20387;-77
2023/12/05 10:53:06;;;;;;;36.03;19.60;;;0.60;99.90;;;;;;5090247;28;20043;-80
2023/12/05 10:55:33;;;;;;;31.15;18.23;;;0.60;99.90;;;;;;5090567;28;20410;-77
2023/12/05 10:58:00;;;;;;;34.10;19.27;;;0.60;99.90;;;;;;5089990;28;20154;-77
2023/12/05 11:00:28;;;;;;;35.15;19.52;;;0.60;99.90;;;;;;5090332;28;20040;-78
2023/12/05 11:02:55;;;;;;;30.65;18.00;;;0.70;99.90;;;;;;5081089;28;20497;-77
2023/12/05 11:05:21;;;;;;;34.83;19.33;;;0.70;99.90;;;;;;5089213;28;20129;-76
2023/12/05 11:07:48;;;;;;;33.33;19.00;;;0.60;99.90;;;;;;5071959;28;20384;-76
2023/12/05 11:10:16;;;;;;;31.77;19.20;;;0.60;99.90;;;;;;5090013;28;20073;-76
2023/12/05 11:12:44;;;;;;;35.17;18.42;;;0.60;99.90;;;;;;5089252;28;20066;-77
2023/12/05 11:15:15;;;;;;;33.00;18.77;;;0.60;99.90;;;;;;5086982;28;20051;-76
2023/12/05 11:17:47;;;;;;;33.15;18.60;;;0.60;99.90;;;;;;5086853;28;20093;-76
2023/12/05 11:20:31;;;;;;;32.65;18.70;;;0.60;99.90;;;;;;5090895;28;20073;-77
2023/12/05 11:23:28;;;;;;;33.83;18.58;;;0.70;99.90;;;;;;5081976;28;20054;-75
2023/12/05 11:26:22;;;;;;;35.03;19.20;;;0.70;99.90;;;;;;5088968;28;20127;-77
2023/12/05 11:28:58;;;;;;;37.47;20.77;;;0.60;99.90;;;;;;5088262;28;20055;-81
2023/12/05 11:31:43;;;;;;;36.08;19.80;;;0.60;99.90;;;;;;5088842;28;20056;-81
2023/12/05 11:34:31;;;;;;;34.05;19.75;;;0.60;99.90;;;;;;5089825;28;20040;-77
2023/12/05 11:37:26;;;;;;;34.50;18.35;;;0.60;99.90;;;;;;5089773;28;20044;-77
2023/12/05 11:39:52;;;;;;;35.10;19.27;;;0.60;99.90;;;;;;5088739;28;20094;-77
2023/12/05 11:42:19;;;;;;;34.78;19.45;;;0.60;99.90;;;;;;5090201;28;20372;-78
2023/12/05 11:44:45;;;;;;;35.92;19.15;;;0.60;99.90;;;;;;5089870;28;20043;-76
2023/12/05 11:47:27;;;;;;;34.38;19.40;;;0.60;99.90;;;;;;5089273;28;20040;-76
2023/12/05 11:49:55;;;;;;;34.33;19.73;;;0.60;99.90;;;;;;5090452;28;20043;-77
2023/12/05 11:52:28;;;;;;;37.30;21.33;;;0.60;99.90;;;;;;5088480;28;20055;-77
2023/12/05 11:54:54;;;;;;;34.40;19.48;;;0.60;99.90;;;;;;5090425;28;20092;-76
2023/12/05 11:57:22;;;;;;;35.97;19.98;;;0.60;99.90;;;;;;5087563;28;20530;-77
2023/12/05 11:59:51;;;;;;;40.13;21.98;;;0.60;99.90;;;;;;5090103;28;20036;-79
2023/12/05 12:02:35;;;;;;;40.28;21.13;;;0.60;99.90;;;;;;5088858;28;20076;-77
2023/12/05 12:05:09;;;;;;;35.75;20.27;;;0.60;99.90;;;;;;5089456;28;20055;-78
2023/12/05 12:07:52;;;;;;;35.72;19.73;;;0.50;99.90;;;;;;5087586;28;20055;-80
2023/12/05 12:10:18;;;;;;;36.58;20.75;;;0.60;99.90;;;;;;5086293;28;20036;-78
2023/12/05 12:12:49;;;;;;;39.25;20.33;;;0.40;99.90;;;;;;5079564;28;20124;-78
2023/12/05 12:15:17;;;;;;;36.38;21.45;;;0.50;99.90;;;;;;5089655;28;20173;-78
2023/12/05 12:17:44;;;;;;;34.25;20.65;;;0.50;99.90;;;;;;5089850;28;20040;-78
2023/12/05 12:20:16;;;;;;;42.22;21.10;;;0.50;99.90;;;;;;5089656;28;20047;-79
2023/12/05 12:22:43;;;;;;;42.65;22.20;;;0.50;99.90;;;;;;5089141;28;20181;-77
2023/12/05 12:25:13;;;;;;;36.92;21.42;;;0.50;99.90;;;;;;5089352;28;20051;-78
2023/12/05 12:27:41;;;;;;;35.78;21.23;;;0.50;99.90;;;;;;5089485;28;20051;-78
2023/12/05 12:30:13;;;;;;;37.10;20.88;;;0.50;99.90;;;;;;5089677;28;20044;-78
2023/12/05 12:32:56;;;;;;;38.50;21.05;;;0.50;99.90;;;;;;5089898;28;20036;-78